createdAt,value
2023-02-02T00:02:01.210Z,100.00
2023-02-02T00:04:29.167Z,100.00
2023-02-02T00:06:57.317Z,100.00
2023-02-02T00:09:24.512Z,100.00
2023-02-02T00:11:51.261Z,100.00
2023-02-02T00:14:18.675Z,100.00
2023-02-02T00:16:49.221Z,100.00
2023-02-02T00:19:26.665Z,100.00
2023-02-02T00:21:56.614Z,100.00
2023-02-02T00:24:23.461Z,100.00
2023-02-02T00:26:51.422Z,100.00
2023-02-02T00:29:19.620Z,100.00
2023-02-02T00:31:46.671Z,100.00
2023-02-02T00:34:14.246Z,100.00
2023-02-02T00:36:41.089Z,100.00
2023-02-02T00:39:08.330Z,100.00
2023-02-02T00:41:35.032Z,100.00
2023-02-02T00:44:20.402Z,100.00
2023-02-02T00:46:47.048Z,100.00
2023-02-02T00:49:13.803Z,100.00
2023-02-02T00:51:40.445Z,100.00
2023-02-02T00:54:07.067Z,100.00
2023-02-02T00:56:33.746Z,100.00
2023-02-02T00:59:00.370Z,100.00
2023-02-02T01:01:27.389Z,100.00
2023-02-02T01:03:53.965Z,100.00
2023-02-02T01:06:20.880Z,100.00
2023-02-02T01:08:47.437Z,100.00
2023-02-02T01:11:14.062Z,100.00
2023-02-02T01:13:40.827Z,100.00
2023-02-02T01:16:07.686Z,100.00
2023-02-02T01:18:34.292Z,100.00
2023-02-02T01:21:05.213Z,100.00
2023-02-02T01:23:32.233Z,100.00
2023-02-02T01:26:00.061Z,100.00
2023-02-02T01:28:27.431Z,100.00
2023-02-02T01:30:54.142Z,100.00
2023-02-02T01:33:21.039Z,100.00
2023-02-02T01:35:56.645Z,100.00
2023-02-02T01:38:23.917Z,100.00
2023-02-02T01:40:54.533Z,100.00
2023-02-02T01:43:22.343Z,100.00
2023-02-02T01:45:49.397Z,100.00
2023-02-02T01:48:16.351Z,100.00
2023-02-02T01:50:43.849Z,100.00
2023-02-02T01:53:10.624Z,100.00
2023-02-02T01:55:38.791Z,100.00
2023-02-02T01:58:11.566Z,100.00
2023-02-02T02:00:40.190Z,100.00
2023-02-02T02:03:09.359Z,100.00
2023-02-02T02:05:38.784Z,100.00
2023-02-02T02:08:23.087Z,100.00
2023-02-02T02:10:49.947Z,100.00
2023-02-02T02:13:17.139Z,100.00
2023-02-02T02:16:16.242Z,100.00
2023-02-02T02:18:55.324Z,100.00
2023-02-02T02:21:40.559Z,100.00
2023-02-02T02:24:26.016Z,100.00
2023-02-02T02:27:17.979Z,100.00
2023-02-02T02:29:47.635Z,100.00
2023-02-02T02:32:22.538Z,100.00
2023-02-02T02:34:52.219Z,100.00
2023-02-02T02:37:37.655Z,100.00
2023-02-02T02:40:21.874Z,100.00
2023-02-02T02:43:07.685Z,100.00
2023-02-02T02:45:35.036Z,100.00
2023-02-02T02:48:02.915Z,100.00
2023-02-02T02:50:29.506Z,100.00
2023-02-02T02:53:05.182Z,100.00
2023-02-02T02:55:36.317Z,100.00
2023-02-02T02:58:06.983Z,100.00
2023-02-02T03:00:36.389Z,100.00
2023-02-02T03:03:05.810Z,100.00
2023-02-02T03:05:41.394Z,100.00
2023-02-02T03:08:11.524Z,100.00
2023-02-02T03:10:40.546Z,100.00
2023-02-02T03:13:08.718Z,100.00
2023-02-02T03:15:35.366Z,100.00
2023-02-02T03:18:02.013Z,100.00
2023-02-02T03:20:28.622Z,100.00
2023-02-02T03:22:55.247Z,100.00
2023-02-02T03:25:21.930Z,100.00
2023-02-02T03:27:48.656Z,100.00
2023-02-02T03:30:15.630Z,100.00
2023-02-02T03:32:42.453Z,100.00
2023-02-02T03:35:09.414Z,100.00
2023-02-02T03:37:36.031Z,100.00
2023-02-02T03:40:02.860Z,100.00
2023-02-02T03:42:29.550Z,100.00
2023-02-02T03:44:56.133Z,100.00
2023-02-02T03:47:22.740Z,100.00
2023-02-02T03:49:49.361Z,100.00
2023-02-02T03:52:15.941Z,100.00
2023-02-02T03:54:42.525Z,100.00
2023-02-02T03:57:09.131Z,100.00
2023-02-02T03:59:35.753Z,100.00
2023-02-02T04:02:02.534Z,100.00
2023-02-02T04:04:29.640Z,100.00
2023-02-02T04:06:56.337Z,100.00
2023-02-02T04:09:23.539Z,100.00
2023-02-02T04:11:50.166Z,100.00
2023-02-02T04:14:16.893Z,100.00
2023-02-02T04:16:43.495Z,100.00
2023-02-02T04:19:10.339Z,100.00
2023-02-02T04:21:36.995Z,100.00
2023-02-02T04:24:03.658Z,100.00
2023-02-02T04:26:30.487Z,100.00
2023-02-02T04:28:57.177Z,100.00
2023-02-02T04:31:23.880Z,100.00
2023-02-02T04:33:50.565Z,100.00
2023-02-02T04:36:17.130Z,100.00
2023-02-02T04:38:43.799Z,100.00
2023-02-02T04:41:14.716Z,100.00
2023-02-02T04:43:41.410Z,100.00
2023-02-02T04:46:08.142Z,100.00
2023-02-02T04:48:34.786Z,100.00
2023-02-02T04:51:06.316Z,100.00
2023-02-02T04:53:33.285Z,100.00
2023-02-02T04:56:05.616Z,100.00
2023-02-02T04:58:32.227Z,100.00
2023-02-02T05:00:58.870Z,100.00
2023-02-02T05:03:26.047Z,100.00
2023-02-02T05:06:00.647Z,100.00
2023-02-02T05:08:27.292Z,100.00
2023-02-02T05:10:53.895Z,100.00
2023-02-02T05:13:20.538Z,100.00
2023-02-02T05:15:48.367Z,100.00
2023-02-02T05:18:15.173Z,100.00
2023-02-02T05:20:42.938Z,100.00
2023-02-02T05:23:09.548Z,100.00
2023-02-02T05:25:36.218Z,100.00
2023-02-02T05:28:02.901Z,100.00
2023-02-02T05:30:29.456Z,100.00
2023-02-02T05:32:56.276Z,100.00
2023-02-02T05:35:23.220Z,100.00
2023-02-02T05:37:50.154Z,100.00
2023-02-02T05:40:16.896Z,100.00
2023-02-02T05:42:43.668Z,100.00
2023-02-02T05:45:10.963Z,100.00
2023-02-02T05:47:39.749Z,100.00
2023-02-02T05:50:06.624Z,100.00
2023-02-02T05:52:35.126Z,100.00
2023-02-02T05:55:02.133Z,100.00
2023-02-02T05:57:28.869Z,100.00
2023-02-02T05:59:55.757Z,100.00
2023-02-02T06:02:22.412Z,100.00
2023-02-02T06:04:49.021Z,100.00
2023-02-02T06:07:15.652Z,100.00
2023-02-02T06:09:42.261Z,100.00
2023-02-02T06:12:08.979Z,100.00
2023-02-02T06:14:35.679Z,100.00
2023-02-02T06:17:02.855Z,100.00
2023-02-02T06:19:29.432Z,100.00
2023-02-02T06:21:56.245Z,100.00
2023-02-02T06:24:22.863Z,100.00
2023-02-02T06:26:50.369Z,100.00
2023-02-02T06:29:17.056Z,100.00
2023-02-02T06:31:43.725Z,100.00
2023-02-02T06:34:11.333Z,100.00
2023-02-02T06:36:37.935Z,100.00
2023-02-02T06:39:06.007Z,100.00
2023-02-02T06:41:32.720Z,100.00
2023-02-02T06:43:59.521Z,100.00
2023-02-02T06:46:26.223Z,100.00
2023-02-02T06:48:52.936Z,100.00
2023-02-02T06:51:20.176Z,100.00
2023-02-02T06:53:50.147Z,100.00
2023-02-02T06:56:17.133Z,100.00
2023-02-02T06:58:43.799Z,100.00
2023-02-02T07:01:11.860Z,100.00
2023-02-02T07:03:38.892Z,100.00
2023-02-02T07:06:16.272Z,100.00
2023-02-02T07:08:43.213Z,100.00
2023-02-02T07:11:14.446Z,100.00
2023-02-02T07:13:42.852Z,100.00
2023-02-02T07:16:15.421Z,100.00
2023-02-02T07:18:47.930Z,100.00
2023-02-02T07:21:20.775Z,100.00
2023-02-02T07:23:48.218Z,100.00
2023-02-02T07:26:16.044Z,100.00
2023-02-02T07:28:42.794Z,100.00
2023-02-02T07:31:27.918Z,100.00
2023-02-02T07:33:54.792Z,100.00
2023-02-02T07:36:23.864Z,100.00
2023-02-02T07:38:51.898Z,100.00
2023-02-02T07:41:18.603Z,100.00
2023-02-02T07:43:48.621Z,100.00
2023-02-02T07:46:16.229Z,100.00
2023-02-02T07:48:43.048Z,100.00
2023-02-02T07:51:11.637Z,100.00
2023-02-02T07:53:38.403Z,100.00
2023-02-02T07:56:12.779Z,100.00
2023-02-02T07:58:39.435Z,100.00
2023-02-02T08:01:07.086Z,100.00
2023-02-02T08:03:34.382Z,100.00
2023-02-02T08:06:01.289Z,100.00
2023-02-02T08:08:27.966Z,100.00
2023-02-02T08:10:54.669Z,100.00
2023-02-02T08:13:21.331Z,100.00
2023-02-02T08:15:48.216Z,100.00
2023-02-02T08:18:16.956Z,100.00
2023-02-02T08:20:43.608Z,100.00
2023-02-02T08:23:15.746Z,100.00
2023-02-02T08:25:43.980Z,100.00
2023-02-02T08:28:10.548Z,100.00
2023-02-02T08:30:37.227Z,100.00
2023-02-02T08:33:03.954Z,100.00
2023-02-02T08:35:30.578Z,100.00
2023-02-02T08:37:57.239Z,100.00
2023-02-02T08:40:25.442Z,100.00
2023-02-02T08:42:55.609Z,100.00
2023-02-02T08:46:01.898Z,100.00
2023-02-02T08:48:12.104Z,100.00
2023-02-02T08:50:39.615Z,100.00
2023-02-02T08:53:08.235Z,100.00
2023-02-02T08:55:35.075Z,100.00
2023-02-02T08:58:01.701Z,100.00
2023-02-02T09:00:28.379Z,100.00
2023-02-02T09:02:55.057Z,100.00
2023-02-02T09:05:21.718Z,100.00
2023-02-02T09:07:49.467Z,100.00
2023-02-02T09:10:16.406Z,100.00
2023-02-02T09:12:43.153Z,100.00
2023-02-02T09:15:10.335Z,100.00
2023-02-02T09:17:37.060Z,100.00
2023-02-02T09:20:04.868Z,100.00
2023-02-02T09:22:31.603Z,100.00
2023-02-02T09:24:58.331Z,100.00
2023-02-02T09:27:24.912Z,100.00
2023-02-02T09:29:53.144Z,100.00
2023-02-02T09:32:20.989Z,100.00
2023-02-02T09:34:47.785Z,100.00
2023-02-02T09:37:15.108Z,100.00
2023-02-02T09:39:41.766Z,100.00
2023-02-02T09:42:16.204Z,100.00
2023-02-02T09:44:56.204Z,100.00
2023-02-02T09:47:35.297Z,100.00
2023-02-02T09:50:02.064Z,100.00
2023-02-02T09:52:35.157Z,100.00
2023-02-02T09:55:07.363Z,100.00
2023-02-02T09:57:38.445Z,100.00
2023-02-02T10:00:06.670Z,100.00
2023-02-02T10:02:39.011Z,100.00
2023-02-02T10:05:27.666Z,100.00
2023-02-02T10:07:57.477Z,100.00
2023-02-02T10:10:26.843Z,100.00
2023-02-02T10:13:00.006Z,100.00
2023-02-02T10:15:45.781Z,100.00
2023-02-02T10:18:21.159Z,100.00
2023-02-02T10:20:51.558Z,100.00
2023-02-02T10:23:21.319Z,100.00
2023-02-02T10:26:07.103Z,100.00
2023-02-02T10:28:49.169Z,100.00
2023-02-02T10:31:38.914Z,100.00
2023-02-02T10:34:25.881Z,100.00
2023-02-02T10:37:14.011Z,100.00
2023-02-02T10:39:53.007Z,100.00
2023-02-02T10:42:28.661Z,100.00
2023-02-02T10:45:00.564Z,100.00
2023-02-02T10:47:29.420Z,100.00
2023-02-02T10:50:02.581Z,100.00
2023-02-02T10:52:31.658Z,100.00
2023-02-02T10:55:04.126Z,100.00
2023-02-02T10:57:34.184Z,100.00
2023-02-02T11:00:06.112Z,100.00
2023-02-02T11:02:33.189Z,100.00
2023-02-02T11:05:18.648Z,100.00
2023-02-02T11:07:45.538Z,100.00
2023-02-02T11:10:12.406Z,100.00
2023-02-02T11:12:42.481Z,100.00
2023-02-02T11:15:25.594Z,100.00
2023-02-02T11:17:52.752Z,100.00
2023-02-02T11:20:24.411Z,100.00
2023-02-02T11:23:00.184Z,100.00
2023-02-02T11:25:32.481Z,100.00
2023-02-02T11:27:59.417Z,100.00
2023-02-02T11:30:37.282Z,100.00
2023-02-02T11:33:20.763Z,100.00
2023-02-02T11:35:56.367Z,100.00
2023-02-02T11:38:23.254Z,100.00
2023-02-02T11:41:04.072Z,100.00
2023-02-02T11:43:52.520Z,100.00
2023-02-02T11:49:08.657Z,100.00
2023-02-02T11:51:35.497Z,100.00
2023-02-02T11:54:06.310Z,100.00
2023-02-02T11:56:35.049Z,100.00
2023-02-02T11:59:04.192Z,100.00
2023-02-02T12:01:34.188Z,100.00
2023-02-02T12:04:02.687Z,100.00
2023-02-02T12:06:32.523Z,100.00
2023-02-02T12:09:01.553Z,100.00
2023-02-02T12:11:28.447Z,100.00
2023-02-02T12:14:02.652Z,98.90
2023-02-02T12:16:40.547Z,99.07
2023-02-02T12:19:21.916Z,99.58
2023-02-02T12:22:03.221Z,92.60
2023-02-02T12:24:38.414Z,96.08
2023-02-02T12:27:05.306Z,90.81
2023-02-02T12:29:40.300Z,89.46
2023-02-02T12:32:14.267Z,90.98
2023-02-02T12:35:07.088Z,91.17
2023-02-02T12:37:39.871Z,93.21
2023-02-02T12:40:25.701Z,94.52
2023-02-02T12:42:55.696Z,93.71
2023-02-02T12:45:34.899Z,94.36
2023-02-02T12:48:20.821Z,92.11
2023-02-02T12:51:10.708Z,92.03
2023-02-02T12:53:37.703Z,91.23
2023-02-02T12:56:29.315Z,88.96
2023-02-02T12:59:08.119Z,85.90
2023-02-02T13:01:40.891Z,85.97
2023-02-02T13:06:52.765Z,88.21
2023-02-02T13:14:42.638Z,87.08
2023-02-02T13:17:16.087Z,89.73
2023-02-02T13:19:46.420Z,91.15
2023-02-02T13:22:20.247Z,92.11
2023-02-02T13:24:49.178Z,93.13
2023-02-02T13:27:18.506Z,91.07
2023-02-02T13:29:57.903Z,90.94
2023-02-02T13:32:33.215Z,93.33
2023-02-02T13:38:01.281Z,91.63
2023-02-02T13:40:27.909Z,92.34
2023-02-02T13:43:04.086Z,95.44
2023-02-02T13:45:49.511Z,94.44
2023-02-02T13:48:34.510Z,93.87
2023-02-02T13:51:19.862Z,93.52
2023-02-02T13:53:46.817Z,95.16
2023-02-02T13:56:31.120Z,96.10
2023-02-02T13:59:14.789Z,94.43
2023-02-02T14:01:45.371Z,95.83
2023-02-02T14:04:21.916Z,95.75
2023-02-02T14:06:54.109Z,94.98
2023-02-02T14:12:08.113Z,96.20
2023-02-02T14:14:36.702Z,97.28
2023-02-02T14:17:09.028Z,98.77
2023-02-02T14:19:35.792Z,97.39
2023-02-02T14:22:18.085Z,98.63
2023-02-02T14:24:46.414Z,99.92
2023-02-02T14:27:13.500Z,99.04
2023-02-02T14:29:44.608Z,99.12
2023-02-02T14:32:16.312Z,100.00
2023-02-02T14:34:43.957Z,100.00
2023-02-02T14:37:23.247Z,100.00
2023-02-02T14:39:56.171Z,100.00
2023-02-02T14:43:03.976Z,100.00
2023-02-02T14:45:40.071Z,100.00
2023-02-02T14:48:06.972Z,100.00
2023-02-02T14:50:39.655Z,100.00
2023-02-02T14:53:15.390Z,100.00
2023-02-02T14:55:55.445Z,100.00
2023-02-02T14:58:27.975Z,100.00
2023-02-02T15:01:01.884Z,100.00
2023-02-02T15:03:35.361Z,100.00
2023-02-02T15:06:03.987Z,100.00
2023-02-02T15:08:30.697Z,100.00
2023-02-02T15:11:27.336Z,100.00
2023-02-02T15:13:59.142Z,100.00
2023-02-02T15:16:30.580Z,100.00
2023-02-02T15:19:06.862Z,100.00
2023-02-02T15:21:36.301Z,100.00
2023-02-02T15:24:03.526Z,100.00
2023-02-02T15:26:33.138Z,100.00
2023-02-02T15:29:01.631Z,100.00
2023-02-02T15:31:43.304Z,100.00
2023-02-02T15:34:27.554Z,100.00
2023-02-02T15:36:56.950Z,100.00
2023-02-02T15:39:29.619Z,100.00
2023-02-02T15:42:17.171Z,100.00
2023-02-02T15:44:43.903Z,100.00
2023-02-02T15:49:46.394Z,100.00
2023-02-02T15:52:18.272Z,100.00
2023-02-02T15:54:56.910Z,100.00
2023-02-02T15:57:27.978Z,100.00
2023-02-02T15:59:54.800Z,100.00
2023-02-02T16:02:42.295Z,100.00
2023-02-02T16:07:53.209Z,100.00
2023-02-02T16:13:24.979Z,100.00
2023-02-02T16:16:00.767Z,100.00
2023-02-02T16:23:58.659Z,100.00
2023-02-02T16:26:27.677Z,100.00
2023-02-02T16:28:54.536Z,100.00
2023-02-02T16:31:21.711Z,100.00
2023-02-02T16:33:48.707Z,100.00
2023-02-02T16:36:24.272Z,100.00
2023-02-02T16:38:52.708Z,100.00
2023-02-02T16:43:52.939Z,100.00
2023-02-02T16:46:53.167Z,100.00
2023-02-02T16:49:24.257Z,100.00
2023-02-02T16:52:10.196Z,100.00
2023-02-02T16:54:37.626Z,100.00
2023-02-02T16:57:04.980Z,100.00
2023-02-02T16:59:33.806Z,100.00
2023-02-02T17:02:21.181Z,100.00
2023-02-02T17:04:50.237Z,100.00
2023-02-02T17:07:17.475Z,100.00
2023-02-02T17:09:45.419Z,100.00
2023-02-02T17:12:35.352Z,100.00
2023-02-02T17:15:24.444Z,100.00
2023-02-02T17:18:03.251Z,100.00
2023-02-02T17:20:32.763Z,100.00
2023-02-02T17:23:10.697Z,100.00
2023-02-02T17:25:42.294Z,100.00
2023-02-02T17:28:18.742Z,100.00
2023-02-02T17:30:48.435Z,100.00
2023-02-02T17:36:02.052Z,100.00
2023-02-02T17:44:01.911Z,100.00
2023-02-02T17:51:48.783Z,100.00
2023-02-02T17:54:16.399Z,100.00
2023-02-02T18:07:37.288Z,100.00
2023-02-02T18:15:38.966Z,100.00
2023-02-02T18:18:06.902Z,100.00
2023-02-02T18:23:15.348Z,100.00
2023-02-02T18:25:42.657Z,100.00
2023-02-02T18:28:09.719Z,100.00
2023-02-02T18:30:40.707Z,100.00
2023-02-02T18:33:08.982Z,100.00
2023-02-02T18:35:36.335Z,100.00
2023-02-02T18:38:03.256Z,100.00
2023-02-02T18:40:30.142Z,100.00
2023-02-02T18:42:56.855Z,100.00
2023-02-02T18:45:23.893Z,100.00
2023-02-02T18:47:51.416Z,100.00
2023-02-02T18:50:18.352Z,100.00
2023-02-02T18:52:45.185Z,100.00
2023-02-02T18:55:11.735Z,100.00
2023-02-02T18:57:38.404Z,100.00
2023-02-02T19:00:05.721Z,100.00
2023-02-02T19:02:32.733Z,100.00
2023-02-02T19:05:18.382Z,100.00
2023-02-02T19:10:12.568Z,100.00
2023-02-02T19:12:39.493Z,100.00
2023-02-02T19:15:11.110Z,100.00
2023-02-02T19:17:38.229Z,100.00
2023-02-02T19:20:21.100Z,100.00
2023-02-02T19:22:47.982Z,100.00
2023-02-02T19:25:15.360Z,100.00
2023-02-02T19:27:42.143Z,100.00
2023-02-02T19:30:17.299Z,100.00
2023-02-02T19:32:44.499Z,100.00
2023-02-02T19:35:17.678Z,100.00
2023-02-02T19:37:48.153Z,100.00
2023-02-02T19:40:15.019Z,100.00
2023-02-02T19:42:45.927Z,100.00
2023-02-02T19:45:22.208Z,100.00
2023-02-02T19:47:51.206Z,100.00
2023-02-02T19:50:23.180Z,100.00
2023-02-02T19:52:50.437Z,100.00
2023-02-02T19:55:18.940Z,100.00
2023-02-02T19:57:45.782Z,100.00
2023-02-02T20:00:20.416Z,100.00
2023-02-02T20:02:59.006Z,100.00
2023-02-02T20:05:34.720Z,100.00
2023-02-02T20:08:07.287Z,100.00
2023-02-02T20:10:44.595Z,100.00
2023-02-02T20:13:30.143Z,100.00
2023-02-02T20:16:03.708Z,100.00
2023-02-02T20:18:37.088Z,100.00
2023-02-02T20:21:07.800Z,100.00
2023-02-02T20:23:44.847Z,100.00
2023-02-02T20:26:20.921Z,100.00
2023-02-02T20:28:49.312Z,100.00
2023-02-02T20:31:18.811Z,100.00
2023-02-02T20:33:47.325Z,100.00
2023-02-02T20:36:20.517Z,100.00
2023-02-02T20:38:49.849Z,100.00
2023-02-02T20:41:18.965Z,100.00
2023-02-02T20:43:46.489Z,100.00
2023-02-02T20:46:13.800Z,100.00
2023-02-02T20:48:40.729Z,100.00
2023-02-02T20:51:07.552Z,100.00
2023-02-02T20:53:35.477Z,100.00
2023-02-02T20:56:03.028Z,100.00
2023-02-02T20:58:29.656Z,100.00
2023-02-02T21:00:56.603Z,100.00
2023-02-02T21:03:23.401Z,100.00
2023-02-02T21:05:50.381Z,100.00
2023-02-02T21:08:17.108Z,100.00
2023-02-02T21:10:43.733Z,100.00
2023-02-02T21:13:10.525Z,100.00
2023-02-02T21:15:37.142Z,100.00
2023-02-02T21:18:04.521Z,100.00
2023-02-02T21:20:31.572Z,100.00
2023-02-02T21:22:58.545Z,100.00
2023-02-02T21:25:25.344Z,100.00
2023-02-02T21:27:52.213Z,100.00
2023-02-02T21:32:51.685Z,100.00
2023-02-02T21:35:18.661Z,100.00
2023-02-02T21:37:47.410Z,100.00
2023-02-02T21:45:35.735Z,100.00
2023-02-02T21:56:16.629Z,100.00
2023-02-02T21:58:45.431Z,100.00
2023-02-02T22:01:21.524Z,100.00
2023-02-02T22:03:50.093Z,100.00
2023-02-02T22:06:28.107Z,100.00
2023-02-02T22:08:59.426Z,100.00
2023-02-02T22:11:31.224Z,100.00
2023-02-02T22:14:18.731Z,100.00
2023-02-02T22:16:48.943Z,100.00
2023-02-02T22:19:24.083Z,100.00
2023-02-02T22:21:50.717Z,100.00
2023-02-02T22:24:17.240Z,100.00
2023-02-02T22:26:43.962Z,100.00
2023-02-02T22:29:16.541Z,100.00
2023-02-02T22:31:43.345Z,100.00
2023-02-02T22:34:09.981Z,100.00
2023-02-02T22:36:36.997Z,100.00
2023-02-02T22:39:03.646Z,100.00
2023-02-02T22:41:30.240Z,100.00
2023-02-02T22:43:56.948Z,100.00
2023-02-02T22:46:23.607Z,100.00
2023-02-02T22:48:50.195Z,100.00
2023-02-02T22:51:18.851Z,100.00
2023-02-02T22:53:45.525Z,100.00
2023-02-02T22:56:12.177Z,100.00
2023-02-02T22:58:39.026Z,100.00
2023-02-02T23:01:05.578Z,100.00
2023-02-02T23:03:32.151Z,100.00
2023-02-02T23:05:58.835Z,100.00
2023-02-02T23:08:25.517Z,100.00
2023-02-02T23:10:52.174Z,100.00
2023-02-02T23:13:18.851Z,100.00
2023-02-02T23:15:45.461Z,100.00
2023-02-02T23:18:12.177Z,100.00
2023-02-02T23:20:38.742Z,100.00
2023-02-02T23:23:05.549Z,100.00
2023-02-02T23:25:32.367Z,100.00
2023-02-02T23:27:59.140Z,100.00
2023-02-02T23:30:26.112Z,100.00
2023-02-02T23:32:53.364Z,100.00
2023-02-02T23:35:20.165Z,100.00
2023-02-02T23:37:46.998Z,100.00
2023-02-02T23:40:13.780Z,100.00
2023-02-02T23:42:40.664Z,100.00
2023-02-02T23:45:07.796Z,100.00
2023-02-02T23:47:35.066Z,100.00
2023-02-02T23:50:09.535Z,100.00
2023-02-02T23:52:37.033Z,100.00
2023-02-02T23:55:05.124Z,100.00
2023-02-02T23:57:33.863Z,100.00
